sensor_id;sensor_type;location;lat;lon;timestamp;pressure;altitude;pressure_sealevel;temperature;humidity
61814;BME280;57055;-35.296;149.168;2023-06-14T00:00:24;94766.84;;;7.29;56.74
61814;BME280;57055;-35.296;149.168;2023-06-14T00:02:53;94763.15;;;7.57;56.92
61814;BME280;57055;-35.296;149.168;2023-06-14T00:05:22;94764.10;;;7.57;56.09
61814;BME280;57055;-35.296;149.168;2023-06-14T00:07:50;94767.49;;;7.49;56.12
61814;BME280;57055;-35.296;149.168;2023-06-14T00:10:19;94762.39;;;7.93;56.51
61814;BME280;57055;-35.296;149.168;2023-06-14T00:12:48;94764.05;;;7.94;56.46
61814;BME280;57055;-35.296;149.168;2023-06-14T00:15:17;94763.98;;;7.65;55.75
61814;BME280;57055;-35.296;149.168;2023-06-14T00:17:45;94771.64;;;7.72;55.85
61814;BME280;57055;-35.296;149.168;2023-06-14T00:20:14;94772.91;;;8.06;55.17
61814;BME280;57055;-35.296;149.168;2023-06-14T00:22:43;94775.84;;;7.69;54.72
61814;BME280;57055;-35.296;149.168;2023-06-14T00:25:12;94784.68;;;7.64;55.22
61814;BME280;57055;-35.296;149.168;2023-06-14T00:27:40;94786.80;;;7.59;55.41
61814;BME280;57055;-35.296;149.168;2023-06-14T00:30:10;94783.05;;;7.81;55.57
61814;BME280;57055;-35.296;149.168;2023-06-14T00:32:39;94777.48;;;7.67;55.65
61814;BME280;57055;-35.296;149.168;2023-06-14T00:35:08;94773.51;;;7.69;55.53
61814;BME280;57055;-35.296;149.168;2023-06-14T00:37:37;94770.28;;;7.74;54.55
61814;BME280;57055;-35.296;149.168;2023-06-14T00:40:06;94763.26;;;7.79;54.78
61814;BME280;57055;-35.296;149.168;2023-06-14T00:42:35;94769.75;;;7.79;54.04
61814;BME280;57055;-35.296;149.168;2023-06-14T00:45:04;94774.09;;;8.17;53.76
61814;BME280;57055;-35.296;149.168;2023-06-14T00:47:33;94769.68;;;7.96;54.23
61814;BME280;57055;-35.296;149.168;2023-06-14T00:50:03;94762.32;;;8.05;54.82
61814;BME280;57055;-35.296;149.168;2023-06-14T00:52:35;94756.30;;;8.07;54.29
61814;BME280;57055;-35.296;149.168;2023-06-14T00:55:05;94769.43;;;7.75;53.96
61814;BME280;57055;-35.296;149.168;2023-06-14T00:57:34;94759.07;;;7.89;53.68
61814;BME280;57055;-35.296;149.168;2023-06-14T01:00:03;94755.80;;;7.63;54.27
61814;BME280;57055;-35.296;149.168;2023-06-14T01:02:32;94761.25;;;7.85;54.06
61814;BME280;57055;-35.296;149.168;2023-06-14T01:05:01;94760.73;;;7.51;54.52
61814;BME280;57055;-35.296;149.168;2023-06-14T01:07:36;94758.70;;;7.61;54.30
61814;BME280;57055;-35.296;149.168;2023-06-14T01:10:26;94758.25;;;7.78;53.81
61814;BME280;57055;-35.296;149.168;2023-06-14T01:13:02;94755.04;;;7.88;53.00
61814;BME280;57055;-35.296;149.168;2023-06-14T01:15:33;94753.21;;;7.89;53.12
61814;BME280;57055;-35.296;149.168;2023-06-14T01:18:03;94757.63;;;8.02;53.77
61814;BME280;57055;-35.296;149.168;2023-06-14T01:20:33;94750.47;;;8.21;53.12
61814;BME280;57055;-35.296;149.168;2023-06-14T01:23:02;94746.31;;;8.17;52.76
61814;BME280;57055;-35.296;149.168;2023-06-14T01:25:31;94756.05;;;8.20;52.69
61814;BME280;57055;-35.296;149.168;2023-06-14T01:28:02;94751.46;;;8.21;53.17
61814;BME280;57055;-35.296;149.168;2023-06-14T01:30:33;94754.09;;;8.32;52.93
61814;BME280;57055;-35.296;149.168;2023-06-14T01:33:02;94751.03;;;8.35;52.11
61814;BME280;57055;-35.296;149.168;2023-06-14T01:35:33;94749.67;;;8.47;52.29
61814;BME280;57055;-35.296;149.168;2023-06-14T01:38:03;94756.19;;;8.47;51.67
61814;BME280;57055;-35.296;149.168;2023-06-14T01:40:35;94763.25;;;8.42;51.87
61814;BME280;57055;-35.296;149.168;2023-06-14T01:43:05;94764.49;;;8.55;51.94
61814;BME280;57055;-35.296;149.168;2023-06-14T01:45:34;94769.76;;;8.48;51.22
61814;BME280;57055;-35.296;149.168;2023-06-14T01:48:05;94770.43;;;8.64;51.53
61814;BME280;57055;-35.296;149.168;2023-06-14T01:50:35;94765.98;;;8.78;50.96
61814;BME280;57055;-35.296;149.168;2023-06-14T01:53:05;94771.15;;;8.59;50.48
61814;BME280;57055;-35.296;149.168;2023-06-14T01:55:35;94765.36;;;8.66;50.42
61814;BME280;57055;-35.296;149.168;2023-06-14T01:58:04;94762.56;;;8.43;50.94
61814;BME280;57055;-35.296;149.168;2023-06-14T02:00:32;94772.17;;;8.44;51.19
61814;BME280;57055;-35.296;149.168;2023-06-14T02:03:01;94776.50;;;8.67;51.68
61814;BME280;57055;-35.296;149.168;2023-06-14T02:05:30;94776.17;;;8.59;50.84
61814;BME280;57055;-35.296;149.168;2023-06-14T02:07:59;94779.42;;;8.35;52.03
61814;BME280;57055;-35.296;149.168;2023-06-14T02:10:27;94772.76;;;8.39;51.61
61814;BME280;57055;-35.296;149.168;2023-06-14T02:12:56;94768.59;;;8.27;51.60
61814;BME280;57055;-35.296;149.168;2023-06-14T02:15:25;94762.80;;;8.63;51.27
61814;BME280;57055;-35.296;149.168;2023-06-14T02:17:54;94770.25;;;8.69;51.59
61814;BME280;57055;-35.296;149.168;2023-06-14T02:20:22;94763.61;;;8.68;51.03
61814;BME280;57055;-35.296;149.168;2023-06-14T02:22:51;94755.87;;;8.71;51.16
61814;BME280;57055;-35.296;149.168;2023-06-14T02:25:20;94759.44;;;8.73;50.87
61814;BME280;57055;-35.296;149.168;2023-06-14T02:27:49;94762.10;;;8.60;51.34
61814;BME280;57055;-35.296;149.168;2023-06-14T02:30:17;94752.83;;;8.88;50.75
61814;BME280;57055;-35.296;149.168;2023-06-14T02:32:46;94751.47;;;9.00;50.68
61814;BME280;57055;-35.296;149.168;2023-06-14T02:35:16;94751.50;;;9.02;50.33
61814;BME280;57055;-35.296;149.168;2023-06-14T02:37:45;94753.19;;;9.13;49.85
61814;BME280;57055;-35.296;149.168;2023-06-14T02:40:13;94763.42;;;9.41;48.82
61814;BME280;57055;-35.296;149.168;2023-06-14T02:42:42;94768.59;;;9.31;48.18
61814;BME280;57055;-35.296;149.168;2023-06-14T02:45:11;94774.86;;;9.03;48.65
61814;BME280;57055;-35.296;149.168;2023-06-14T02:47:39;94765.99;;;9.02;48.50
61814;BME280;57055;-35.296;149.168;2023-06-14T02:50:09;94761.72;;;9.13;48.48
61814;BME280;57055;-35.296;149.168;2023-06-14T02:52:38;94771.16;;;9.12;48.83
61814;BME280;57055;-35.296;149.168;2023-06-14T02:55:07;94768.88;;;9.05;48.55
61814;BME280;57055;-35.296;149.168;2023-06-14T02:57:36;94767.96;;;8.99;48.97
61814;BME280;57055;-35.296;149.168;2023-06-14T03:00:06;94771.08;;;9.35;49.31
61814;BME280;57055;-35.296;149.168;2023-06-14T03:02:35;94765.46;;;9.31;49.44
61814;BME280;57055;-35.296;149.168;2023-06-14T03:05:04;94763.51;;;9.11;49.20
61814;BME280;57055;-35.296;149.168;2023-06-14T03:07:33;94768.38;;;9.27;49.39
61814;BME280;57055;-35.296;149.168;2023-06-14T03:10:02;94767.12;;;9.32;50.04
61814;BME280;57055;-35.296;149.168;2023-06-14T03:12:30;94761.17;;;9.21;49.42
61814;BME280;57055;-35.296;149.168;2023-06-14T03:14:59;94763.92;;;9.15;49.64
61814;BME280;57055;-35.296;149.168;2023-06-14T03:17:28;94764.02;;;9.05;49.85
61814;BME280;57055;-35.296;149.168;2023-06-14T03:19:57;94759.30;;;9.07;49.06
61814;BME280;57055;-35.296;149.168;2023-06-14T03:22:25;94765.41;;;9.19;49.60
61814;BME280;57055;-35.296;149.168;2023-06-14T03:24:54;94754.68;;;9.36;49.10
61814;BME280;57055;-35.296;149.168;2023-06-14T03:27:23;94761.56;;;9.35;49.23
61814;BME280;57055;-35.296;149.168;2023-06-14T03:29:52;94758.56;;;9.14;48.87
61814;BME280;57055;-35.296;149.168;2023-06-14T03:32:20;94763.38;;;9.19;48.48
61814;BME280;57055;-35.296;149.168;2023-06-14T03:34:49;94769.09;;;9.45;48.96
61814;BME280;57055;-35.296;149.168;2023-06-14T03:37:19;94770.42;;;9.27;49.37
61814;BME280;57055;-35.296;149.168;2023-06-14T03:39:47;94760.55;;;9.34;48.59
61814;BME280;57055;-35.296;149.168;2023-06-14T03:42:16;94755.51;;;9.17;48.68
61814;BME280;57055;-35.296;149.168;2023-06-14T03:44:45;94757.01;;;9.19;48.99
61814;BME280;57055;-35.296;149.168;2023-06-14T03:47:14;94753.05;;;8.73;49.48
61814;BME280;57055;-35.296;149.168;2023-06-14T03:49:42;94756.29;;;8.76;49.95
61814;BME280;57055;-35.296;149.168;2023-06-14T03:52:11;94752.15;;;9.04;49.04
61814;BME280;57055;-35.296;149.168;2023-06-14T03:54:40;94758.03;;;8.94;49.09
61814;BME280;57055;-35.296;149.168;2023-06-14T03:57:09;94756.41;;;8.88;49.11
61814;BME280;57055;-35.296;149.168;2023-06-14T03:59:38;94754.93;;;8.77;49.49
61814;BME280;57055;-35.296;149.168;2023-06-14T04:02:07;94761.07;;;8.63;49.76
61814;BME280;57055;-35.296;149.168;2023-06-14T04:04:36;94754.89;;;8.57;50.34
61814;BME280;57055;-35.296;149.168;2023-06-14T04:07:05;94750.46;;;8.59;50.48
61814;BME280;57055;-35.296;149.168;2023-06-14T04:09:33;94753.27;;;8.58;49.76
61814;BME280;57055;-35.296;149.168;2023-06-14T04:12:02;94742.85;;;8.51;50.43
61814;BME280;57055;-35.296;149.168;2023-06-14T04:14:31;94748.41;;;8.41;49.84
61814;BME280;57055;-35.296;149.168;2023-06-14T04:17:00;94748.07;;;8.33;50.28
61814;BME280;57055;-35.296;149.168;2023-06-14T04:19:28;94742.14;;;8.34;49.92
61814;BME280;57055;-35.296;149.168;2023-06-14T04:21:58;94749.15;;;8.27;50.19
61814;BME280;57055;-35.296;149.168;2023-06-14T04:24:27;94750.98;;;8.21;50.26
61814;BME280;57055;-35.296;149.168;2023-06-14T04:26:56;94753.96;;;8.13;50.95
61814;BME280;57055;-35.296;149.168;2023-06-14T04:29:25;94761.98;;;8.13;50.95
61814;BME280;57055;-35.296;149.168;2023-06-14T04:31:55;94761.59;;;8.19;50.80
61814;BME280;57055;-35.296;149.168;2023-06-14T04:34:24;94772.99;;;8.17;50.90
61814;BME280;57055;-35.296;149.168;2023-06-14T04:36:52;94773.25;;;8.06;51.39
61814;BME280;57055;-35.296;149.168;2023-06-14T04:39:22;94780.17;;;8.06;50.83
61814;BME280;57055;-35.296;149.168;2023-06-14T04:41:51;94785.62;;;7.95;50.97
61814;BME280;57055;-35.296;149.168;2023-06-14T04:44:20;94795.33;;;7.78;51.44
61814;BME280;57055;-35.296;149.168;2023-06-14T04:46:49;94796.76;;;7.81;50.91
61814;BME280;57055;-35.296;149.168;2023-06-14T04:49:18;94800.00;;;7.63;51.67
61814;BME280;57055;-35.296;149.168;2023-06-14T04:51:48;94799.64;;;7.59;52.12
61814;BME280;57055;-35.296;149.168;2023-06-14T04:54:16;94799.01;;;7.86;52.45
61814;BME280;57055;-35.296;149.168;2023-06-14T04:56:45;94805.48;;;7.70;52.19
61814;BME280;57055;-35.296;149.168;2023-06-14T04:59:14;94806.11;;;7.65;52.24
61814;BME280;57055;-35.296;149.168;2023-06-14T05:01:43;94813.89;;;7.73;51.97
61814;BME280;57055;-35.296;149.168;2023-06-14T05:04:12;94808.55;;;7.65;51.66
61814;BME280;57055;-35.296;149.168;2023-06-14T05:06:41;94808.77;;;7.72;50.80
61814;BME280;57055;-35.296;149.168;2023-06-14T05:09:10;94816.76;;;7.67;51.01
61814;BME280;57055;-35.296;149.168;2023-06-14T05:11:39;94830.04;;;7.82;51.25
61814;BME280;57055;-35.296;149.168;2023-06-14T05:14:08;94815.42;;;7.79;51.61
61814;BME280;57055;-35.296;149.168;2023-06-14T05:16:36;94822.61;;;7.63;51.44
61814;BME280;57055;-35.296;149.168;2023-06-14T05:19:06;94822.01;;;7.64;52.24
61814;BME280;57055;-35.296;149.168;2023-06-14T05:21:35;94833.38;;;7.66;52.34
61814;BME280;57055;-35.296;149.168;2023-06-14T05:24:04;94832.81;;;7.89;51.93
61814;BME280;57055;-35.296;149.168;2023-06-14T05:26:33;94834.39;;;7.77;51.80
61814;BME280;57055;-35.296;149.168;2023-06-14T05:29:02;94837.72;;;7.86;51.94
61814;BME280;57055;-35.296;149.168;2023-06-14T05:31:31;94842.01;;;7.31;52.17
61814;BME280;57055;-35.296;149.168;2023-06-14T05:34:00;94836.39;;;7.94;51.74
61814;BME280;57055;-35.296;149.168;2023-06-14T05:36:28;94836.95;;;7.37;52.33
61814;BME280;57055;-35.296;149.168;2023-06-14T05:38:57;94847.07;;;7.80;52.79
61814;BME280;57055;-35.296;149.168;2023-06-14T05:41:26;94846.51;;;7.52;52.88
61814;BME280;57055;-35.296;149.168;2023-06-14T05:43:56;94852.24;;;7.44;53.18
61814;BME280;57055;-35.296;149.168;2023-06-14T05:46:25;94860.81;;;7.41;53.72
61814;BME280;57055;-35.296;149.168;2023-06-14T05:48:55;94860.25;;;7.61;54.01
61814;BME280;57055;-35.296;149.168;2023-06-14T05:51:24;94864.29;;;7.38;54.15
61814;BME280;57055;-35.296;149.168;2023-06-14T05:53:53;94867.76;;;7.51;53.97
61814;BME280;57055;-35.296;149.168;2023-06-14T05:56:21;94877.41;;;7.27;54.23
61814;BME280;57055;-35.296;149.168;2023-06-14T05:58:50;94877.41;;;7.55;54.17
61814;BME280;57055;-35.296;149.168;2023-06-14T06:01:19;94881.64;;;7.27;54.34
61814;BME280;57055;-35.296;149.168;2023-06-14T06:03:48;94888.83;;;7.46;54.25
61814;BME280;57055;-35.296;149.168;2023-06-14T06:06:16;94893.96;;;7.46;53.98
61814;BME280;57055;-35.296;149.168;2023-06-14T06:08:45;94901.94;;;7.48;54.14
61814;BME280;57055;-35.296;149.168;2023-06-14T06:11:14;94899.78;;;7.54;53.99
61814;BME280;57055;-35.296;149.168;2023-06-14T06:13:43;94899.00;;;7.59;53.82
61814;BME280;57055;-35.296;149.168;2023-06-14T06:16:12;94898.54;;;7.58;53.87
61814;BME280;57055;-35.296;149.168;2023-06-14T06:18:41;94899.36;;;7.50;54.59
61814;BME280;57055;-35.296;149.168;2023-06-14T06:21:10;94904.57;;;7.51;55.00
61814;BME280;57055;-35.296;149.168;2023-06-14T06:23:39;94911.61;;;7.19;55.60
61814;BME280;57055;-35.296;149.168;2023-06-14T06:26:07;94909.62;;;7.43;55.83
61814;BME280;57055;-35.296;149.168;2023-06-14T06:28:36;94918.48;;;7.23;56.12
61814;BME280;57055;-35.296;149.168;2023-06-14T06:31:05;94913.76;;;7.26;56.01
61814;BME280;57055;-35.296;149.168;2023-06-14T06:33:34;94912.90;;;7.49;55.92
61814;BME280;57055;-35.296;149.168;2023-06-14T06:36:03;94914.16;;;7.23;56.01
61814;BME280;57055;-35.296;149.168;2023-06-14T06:38:31;94912.55;;;7.23;55.81
61814;BME280;57055;-35.296;149.168;2023-06-14T06:41:00;94915.77;;;7.42;55.88
61814;BME280;57055;-35.296;149.168;2023-06-14T06:43:29;94916.79;;;7.10;56.36
61814;BME280;57055;-35.296;149.168;2023-06-14T06:45:58;94917.73;;;7.31;56.59
61814;BME280;57055;-35.296;149.168;2023-06-14T06:48:27;94920.61;;;7.10;56.75
61814;BME280;57055;-35.296;149.168;2023-06-14T06:50:55;94907.91;;;7.31;56.69
61814;BME280;57055;-35.296;149.168;2023-06-14T06:53:24;94921.78;;;7.08;56.75
61814;BME280;57055;-35.296;149.168;2023-06-14T06:55:53;94923.63;;;6.96;57.02
61814;BME280;57055;-35.296;149.168;2023-06-14T06:58:22;94920.81;;;7.19;57.18
61814;BME280;57055;-35.296;149.168;2023-06-14T07:00:51;94925.37;;;7.12;57.13
61814;BME280;57055;-35.296;149.168;2023-06-14T07:03:19;94926.30;;;7.08;57.11
61814;BME280;57055;-35.296;149.168;2023-06-14T07:05:48;94935.00;;;7.03;57.40
61814;BME280;57055;-35.296;149.168;2023-06-14T07:08:18;94933.41;;;6.96;57.52
61814;BME280;57055;-35.296;149.168;2023-06-14T07:10:47;94940.48;;;6.94;57.60
61814;BME280;57055;-35.296;149.168;2023-06-14T07:13:15;94941.07;;;7.12;57.65
61814;BME280;57055;-35.296;149.168;2023-06-14T07:15:44;94937.16;;;6.82;57.56
61814;BME280;57055;-35.296;149.168;2023-06-14T07:18:13;94935.68;;;6.99;57.84
61814;BME280;57055;-35.296;149.168;2023-06-14T07:20:42;94937.87;;;6.75;58.13
61814;BME280;57055;-35.296;149.168;2023-06-14T07:23:10;94939.21;;;6.74;58.00
61814;BME280;57055;-35.296;149.168;2023-06-14T07:25:39;94947.09;;;6.77;57.91
61814;BME280;57055;-35.296;149.168;2023-06-14T07:28:08;94947.78;;;6.73;57.80
61814;BME280;57055;-35.296;149.168;2023-06-14T07:30:37;94951.98;;;6.65;57.91
61814;BME280;57055;-35.296;149.168;2023-06-14T07:33:06;94957.82;;;6.62;57.70
61814;BME280;57055;-35.296;149.168;2023-06-14T07:35:34;94961.49;;;6.62;57.64
61814;BME280;57055;-35.296;149.168;2023-06-14T07:38:03;94964.08;;;6.90;57.37
61814;BME280;57055;-35.296;149.168;2023-06-14T07:40:32;94960.84;;;6.68;57.46
61814;BME280;57055;-35.296;149.168;2023-06-14T07:43:01;94969.36;;;6.64;57.30
61814;BME280;57055;-35.296;149.168;2023-06-14T07:45:30;94976.47;;;6.53;57.42
61814;BME280;57055;-35.296;149.168;2023-06-14T07:47:58;94980.54;;;6.51;57.61
61814;BME280;57055;-35.296;149.168;2023-06-14T07:50:27;94977.37;;;6.68;57.75
61814;BME280;57055;-35.296;149.168;2023-06-14T07:52:56;94977.93;;;6.53;57.28
61814;BME280;57055;-35.296;149.168;2023-06-14T07:55:44;94978.81;;;6.47;57.31
61814;BME280;57055;-35.296;149.168;2023-06-14T07:58:13;94981.11;;;6.51;56.61
61814;BME280;57055;-35.296;149.168;2023-06-14T08:00:41;94978.83;;;6.80;56.03
61814;BME280;57055;-35.296;149.168;2023-06-14T08:03:10;94974.68;;;6.58;56.07
61814;BME280;57055;-35.296;149.168;2023-06-14T08:05:39;94976.67;;;6.61;55.71
61814;BME280;57055;-35.296;149.168;2023-06-14T08:08:08;94980.05;;;6.59;55.47
61814;BME280;57055;-35.296;149.168;2023-06-14T08:10:37;94981.62;;;6.61;55.31
61814;BME280;57055;-35.296;149.168;2023-06-14T08:13:06;94988.14;;;6.58;55.32
61814;BME280;57055;-35.296;149.168;2023-06-14T08:15:35;94989.79;;;6.82;55.17
61814;BME280;57055;-35.296;149.168;2023-06-14T08:18:04;94991.75;;;6.57;55.10
61814;BME280;57055;-35.296;149.168;2023-06-14T08:20:33;94993.65;;;6.49;55.47
61814;BME280;57055;-35.296;149.168;2023-06-14T08:23:03;94992.00;;;6.50;54.49
61814;BME280;57055;-35.296;149.168;2023-06-14T08:25:32;94992.62;;;6.62;54.20
61814;BME280;57055;-35.296;149.168;2023-06-14T08:28:01;94992.51;;;6.54;54.34
61814;BME280;57055;-35.296;149.168;2023-06-14T08:30:30;94997.50;;;6.76;54.08
61814;BME280;57055;-35.296;149.168;2023-06-14T08:32:58;95002.68;;;6.72;54.43
61814;BME280;57055;-35.296;149.168;2023-06-14T08:35:27;95000.42;;;6.71;54.31
61814;BME280;57055;-35.296;149.168;2023-06-14T08:37:56;95002.41;;;6.59;53.93
61814;BME280;57055;-35.296;149.168;2023-06-14T08:40:25;95008.94;;;6.96;54.38
61814;BME280;57055;-35.296;149.168;2023-06-14T08:42:56;95008.64;;;6.68;54.09
61814;BME280;57055;-35.296;149.168;2023-06-14T08:45:26;95012.17;;;6.93;54.12
61814;BME280;57055;-35.296;149.168;2023-06-14T08:47:55;95021.85;;;6.36;53.96
61814;BME280;57055;-35.296;149.168;2023-06-14T08:50:24;95018.58;;;6.53;54.11
61814;BME280;57055;-35.296;149.168;2023-06-14T08:52:56;95010.18;;;6.40;53.70
61814;BME280;57055;-35.296;149.168;2023-06-14T08:55:26;95005.86;;;6.65;53.50
61814;BME280;57055;-35.296;149.168;2023-06-14T08:57:56;95006.18;;;6.94;53.45
61814;BME280;57055;-35.296;149.168;2023-06-14T09:00:27;95000.28;;;6.50;53.35
61814;BME280;57055;-35.296;149.168;2023-06-14T09:02:55;95002.92;;;6.42;53.69
61814;BME280;57055;-35.296;149.168;2023-06-14T09:05:25;95000.74;;;6.73;53.39
61814;BME280;57055;-35.296;149.168;2023-06-14T09:07:54;95002.90;;;6.47;53.33
61814;BME280;57055;-35.296;149.168;2023-06-14T09:10:23;95004.25;;;6.62;53.59
61814;BME280;57055;-35.296;149.168;2023-06-14T09:12:53;95009.75;;;6.34;53.90
61814;BME280;57055;-35.296;149.168;2023-06-14T09:15:22;95012.35;;;6.37;53.97
61814;BME280;57055;-35.296;149.168;2023-06-14T09:17:51;95019.10;;;6.28;53.98
61814;BME280;57055;-35.296;149.168;2023-06-14T09:20:19;95025.42;;;6.52;53.78
61814;BME280;57055;-35.296;149.168;2023-06-14T09:22:48;95025.24;;;6.36;54.33
61814;BME280;57055;-35.296;149.168;2023-06-14T09:25:17;95031.10;;;6.32;54.35
61814;BME280;57055;-35.296;149.168;2023-06-14T09:27:48;95033.56;;;6.40;54.74
61814;BME280;57055;-35.296;149.168;2023-06-14T09:30:19;95035.58;;;6.36;54.73
61814;BME280;57055;-35.296;149.168;2023-06-14T09:32:48;95044.27;;;6.42;55.23
61814;BME280;57055;-35.296;149.168;2023-06-14T09:35:18;95038.79;;;6.30;55.58
61814;BME280;57055;-35.296;149.168;2023-06-14T09:37:48;95046.32;;;6.22;55.90
61814;BME280;57055;-35.296;149.168;2023-06-14T09:40:21;95052.31;;;6.19;56.14
61814;BME280;57055;-35.296;149.168;2023-06-14T09:42:50;95053.74;;;5.92;56.17
61814;BME280;57055;-35.296;149.168;2023-06-14T09:45:21;95055.27;;;5.83;56.50
61814;BME280;57055;-35.296;149.168;2023-06-14T09:47:51;95055.74;;;5.73;56.62
61814;BME280;57055;-35.296;149.168;2023-06-14T09:50:21;95060.14;;;5.96;56.65
61814;BME280;57055;-35.296;149.168;2023-06-14T09:52:50;95058.19;;;5.91;56.76
61814;BME280;57055;-35.296;149.168;2023-06-14T09:55:20;95065.79;;;5.92;56.74
61814;BME280;57055;-35.296;149.168;2023-06-14T09:57:51;95058.43;;;5.63;56.76
61814;BME280;57055;-35.296;149.168;2023-06-14T10:00:22;95053.35;;;5.97;56.40
61814;BME280;57055;-35.296;149.168;2023-06-14T10:02:56;95053.84;;;5.93;56.49
61814;BME280;57055;-35.296;149.168;2023-06-14T10:05:28;95056.00;;;5.72;56.48
61814;BME280;57055;-35.296;149.168;2023-06-14T10:08:03;95051.59;;;5.94;56.22
61814;BME280;57055;-35.296;149.168;2023-06-14T10:10:33;95052.54;;;5.68;56.42
61814;BME280;57055;-35.296;149.168;2023-06-14T10:13:03;95053.68;;;5.99;56.30
61814;BME280;57055;-35.296;149.168;2023-06-14T10:15:38;95055.95;;;5.74;56.03
61814;BME280;57055;-35.296;149.168;2023-06-14T10:18:17;95058.07;;;6.00;56.10
61814;BME280;57055;-35.296;149.168;2023-06-14T10:20:54;95047.63;;;5.99;55.82
61814;BME280;57055;-35.296;149.168;2023-06-14T10:23:25;95044.59;;;5.99;55.87
61814;BME280;57055;-35.296;149.168;2023-06-14T10:25:58;95055.40;;;6.01;55.49
61814;BME280;57055;-35.296;149.168;2023-06-14T10:28:27;95049.46;;;5.75;55.19
61814;BME280;57055;-35.296;149.168;2023-06-14T10:31:12;95054.61;;;5.97;55.10
61814;BME280;57055;-35.296;149.168;2023-06-14T10:33:49;95067.19;;;6.07;54.58
61814;BME280;57055;-35.296;149.168;2023-06-14T10:36:27;95068.27;;;6.02;54.72
61814;BME280;57055;-35.296;149.168;2023-06-14T10:39:05;95078.48;;;5.94;54.81
61814;BME280;57055;-35.296;149.168;2023-06-14T10:41:37;95080.68;;;5.81;55.09
61814;BME280;57055;-35.296;149.168;2023-06-14T10:44:41;95086.60;;;5.90;54.65
61814;BME280;57055;-35.296;149.168;2023-06-14T10:47:27;95095.44;;;5.87;54.88
61814;BME280;57055;-35.296;149.168;2023-06-14T10:50:02;95097.03;;;5.91;54.18
61814;BME280;57055;-35.296;149.168;2023-06-14T10:52:34;95098.72;;;5.96;53.82
61814;BME280;57055;-35.296;149.168;2023-06-14T10:55:07;95098.81;;;5.74;53.37
61814;BME280;57055;-35.296;149.168;2023-06-14T10:57:36;95105.68;;;5.89;54.12
61814;BME280;57055;-35.296;149.168;2023-06-14T11:00:07;95105.62;;;5.79;54.36
61814;BME280;57055;-35.296;149.168;2023-06-14T11:03:13;95100.91;;;5.73;54.36
61814;BME280;57055;-35.296;149.168;2023-06-14T11:05:51;95109.15;;;5.66;54.96
61814;BME280;57055;-35.296;149.168;2023-06-14T11:08:51;95107.94;;;5.73;55.28
61814;BME280;57055;-35.296;149.168;2023-06-14T11:11:31;95109.04;;;5.43;55.52
61814;BME280;57055;-35.296;149.168;2023-06-14T11:14:00;95102.36;;;6.01;54.81
61814;BME280;57055;-35.296;149.168;2023-06-14T11:16:30;95103.28;;;5.52;54.91
61814;BME280;57055;-35.296;149.168;2023-06-14T11:19:00;95114.37;;;5.56;54.49
61814;BME280;57055;-35.296;149.168;2023-06-14T11:21:32;95116.82;;;5.66;54.48
61814;BME280;57055;-35.296;149.168;2023-06-14T11:24:01;95116.68;;;5.62;54.35
61814;BME280;57055;-35.296;149.168;2023-06-14T11:26:31;95119.38;;;5.64;54.11
61814;BME280;57055;-35.296;149.168;2023-06-14T11:29:01;95113.04;;;5.79;54.24
61814;BME280;57055;-35.296;149.168;2023-06-14T11:31:30;95115.63;;;5.55;54.56
61814;BME280;57055;-35.296;149.168;2023-06-14T11:34:00;95113.50;;;5.49;54.97
61814;BME280;57055;-35.296;149.168;2023-06-14T11:36:31;95103.69;;;5.54;54.93
61814;BME280;57055;-35.296;149.168;2023-06-14T11:39:00;95105.89;;;5.50;55.42
61814;BME280;57055;-35.296;149.168;2023-06-14T11:41:39;95106.00;;;5.71;55.52
61814;BME280;57055;-35.296;149.168;2023-06-14T11:44:08;95095.69;;;5.47;55.73
61814;BME280;57055;-35.296;149.168;2023-06-14T11:46:38;95091.64;;;5.54;56.19
61814;BME280;57055;-35.296;149.168;2023-06-14T11:49:08;95094.22;;;5.21;56.50
61814;BME280;57055;-35.296;149.168;2023-06-14T11:51:37;95103.08;;;5.24;56.49
61814;BME280;57055;-35.296;149.168;2023-06-14T11:54:07;95094.82;;;5.41;55.27
61814;BME280;57055;-35.296;149.168;2023-06-14T11:56:37;95098.59;;;5.61;55.76
61814;BME280;57055;-35.296;149.168;2023-06-14T11:59:06;95096.46;;;5.26;55.88
61814;BME280;57055;-35.296;149.168;2023-06-14T12:01:37;95096.79;;;5.17;56.05
61814;BME280;57055;-35.296;149.168;2023-06-14T12:04:06;95098.89;;;5.43;56.06
61814;BME280;57055;-35.296;149.168;2023-06-14T12:06:36;95100.05;;;5.78;55.78
61814;BME280;57055;-35.296;149.168;2023-06-14T12:09:06;95102.55;;;5.50;55.73
61814;BME280;57055;-35.296;149.168;2023-06-14T12:11:36;95103.49;;;5.29;55.38
61814;BME280;57055;-35.296;149.168;2023-06-14T12:14:07;95100.41;;;5.20;55.33
61814;BME280;57055;-35.296;149.168;2023-06-14T12:16:39;95099.47;;;5.10;55.66
61814;BME280;57055;-35.296;149.168;2023-06-14T12:19:13;95098.31;;;5.14;55.60
61814;BME280;57055;-35.296;149.168;2023-06-14T12:21:43;95093.19;;;5.37;55.75
61814;BME280;57055;-35.296;149.168;2023-06-14T12:24:13;95094.16;;;5.11;55.69
61814;BME280;57055;-35.296;149.168;2023-06-14T12:26:42;95098.20;;;5.39;55.76
61814;BME280;57055;-35.296;149.168;2023-06-14T12:29:12;95094.68;;;5.34;55.71
61814;BME280;57055;-35.296;149.168;2023-06-14T12:31:41;95098.49;;;5.33;55.47
61814;BME280;57055;-35.296;149.168;2023-06-14T12:34:10;95104.04;;;5.54;55.40
61814;BME280;57055;-35.296;149.168;2023-06-14T12:36:39;95103.66;;;5.33;55.52
61814;BME280;57055;-35.296;149.168;2023-06-14T12:39:07;95104.57;;;5.03;55.71
61814;BME280;57055;-35.296;149.168;2023-06-14T12:41:36;95106.11;;;5.22;55.80
61814;BME280;57055;-35.296;149.168;2023-06-14T12:44:05;95105.59;;;5.13;56.32
61814;BME280;57055;-35.296;149.168;2023-06-14T12:46:34;95104.89;;;5.10;56.10
61814;BME280;57055;-35.296;149.168;2023-06-14T12:49:03;95104.47;;;4.85;56.23
61814;BME280;57055;-35.296;149.168;2023-06-14T12:51:32;95114.83;;;4.81;56.20
61814;BME280;57055;-35.296;149.168;2023-06-14T12:54:01;95113.89;;;5.33;56.07